Middle River, MD (21220)

8:31 PM EDT on July 22, 2017 (GMT -0400)
Goldentree / Orems Elementary | | Change Station

Elev 51 ft 39.33 °N, 76.47 °W | Updated 18 seconds ago

Overcast
Overcast
73.8 °F
Feels Like 77 °F
N
0.0
Wind Variable Wind from SSW
Gusts 0.0 mph

Today
High -- | Low -- °F
--% Chance of Precip.
Yesterday
High -- | Low -- °F
Precip. -- in
Pressure 29.77 in
Visibility 10.0 miles
Clouds Scattered Clouds 7000 ft
Overcast 15000 ft
Heat Index 77 °F
Dew Point 53 °F
Humidity 49%
Rainfall 0.05 in
Snow Depth Not available.
5:57 AM 8:26 PM
Waning Crescent, 0% visible
METAR KMTN 222345Z 21005KT 10SM SCT070 OVC150 25/24 A2977
Pressure 29.77 in
Visibility 10.0 miles
Clouds Scattered Clouds 7000 ft
Overcast 15000 ft
Heat Index 77 °F
Dew Point 53 °F
Humidity 49%
Rainfall 0.05 in
Snow Depth Not available.
5:57 AM 8:26 PM
Waning Crescent, 0% visible
METAR KMTN 222345Z 21005KT 10SM SCT070 OVC150 25/24 A2977

Get Severe Weather Alerts

Thanks for signing up!

Be on the lookout for a verification email in your inbox.

You'll start receiving the daily forecast at 6 AM.

×

10-Day Weather Forecast

Almanac

Astronomy

Jul. 22, 2017 Rise Set
Actual Time
Civil Twilight
Nautical Twilight
Astronomical Twilight
Moon
Length of Visible Light
Length of Day
Tomorrow will be .
, % of the Moon is Illuminated

Today's Extremes

State Highs State Lows

Community

WunderPhotos

Category 6

Welcome to Category 6. This is the collective home for Weather Underground's featured writeups by Dr. Jeff Masters (right), Bob Henson (left), Chris Burt, and other regular contributors.

Nearby

Air Quality

  Air Quality AQ Index Pollutant
Not available.

Snow Depth

Station Depth Elevation

Earthquake Activity

City Distance Mag. Time & Date
Minimum magnitude displayed is 2.5.

Coastal Water Temperatures

Place Temperature

Stations

Nearby Weather Stations

Station Location Temp. Windchill Dew Point Humidity Wind Precip. Elev Updated Type
                   

Watches & Warnings

There are currently no watches in effect.